Time;durP1;ratioP1;P1;durP2;ratioP2;P2;SDS_P1;SDS_P2;PMS_P1;PMS_P2;Temp;Humidity;BMP_temperature;BMP_pressure;BME280_temperature;BME280_humidity;BME280_pressure;Samples;Min_cycle;Max_cycle;Signal;HPM_P1;HPM_P2
2022/08/17 00:00:25;;;;;;;5.50;4.97;;;28.00;1.00;;;;;;5111645;28;20031;-56
2022/08/17 00:03:29;;;;;;;5.82;5.15;;;27.90;1.00;;;;;;5093922;28;20458;-58
2022/08/17 00:05:58;;;;;;;6.18;5.28;;;28.00;1.00;;;;;;5098861;28;20051;-56
2022/08/17 00:08:30;;;;;;;5.68;5.13;;;28.00;1.00;;;;;;5111482;28;20063;-53
2022/08/17 00:10:57;;;;;;;5.82;4.65;;;27.90;1.00;;;;;;5112338;28;20016;-57
2022/08/17 00:13:35;;;;;;;6.13;4.38;;;27.90;1.00;;;;;;5111387;28;20036;-55
2022/08/17 00:16:05;;;;;;;4.95;4.43;;;27.80;1.00;;;;;;5102784;28;20133;-55
2022/08/17 00:18:31;;;;;;;4.97;4.45;;;27.80;1.00;;;;;;5111568;28;20047;-57
2022/08/17 00:20:58;;;;;;;6.55;4.60;;;27.80;1.00;;;;;;5112393;28;20024;-56
2022/08/17 00:23:25;;;;;;;5.65;4.50;;;27.70;1.00;;;;;;5111646;28;20061;-55
2022/08/17 00:25:52;;;;;;;6.22;4.00;;;27.80;1.00;;;;;;5092423;28;20028;-57
2022/08/17 00:28:18;;;;;;;4.55;4.13;;;27.80;1.00;;;;;;5109726;28;20015;-55
2022/08/17 00:30:47;;;;;;;4.60;4.20;;;27.80;1.00;;;;;;5100749;28;20032;-56
2022/08/17 00:33:16;;;;;;;4.85;4.18;;;27.70;1.00;;;;;;5095490;28;20023;-57
2022/08/17 00:35:43;;;;;;;9.88;4.88;;;27.70;1.00;;;;;;5111326;28;20035;-57
2022/08/17 00:38:10;;;;;;;5.55;4.85;;;27.60;1.00;;;;;;5112028;28;20024;-56
2022/08/17 00:40:39;;;;;;;5.55;4.95;;;27.60;1.00;;;;;;5110790;28;20012;-55
2022/08/17 00:43:24;;;;;;;6.07;5.40;;;27.70;1.00;;;;;;5111932;28;20038;-54
2022/08/17 00:45:50;;;;;;;5.28;4.80;;;27.70;1.00;;;;;;5111532;28;20426;-58
2022/08/17 00:48:17;;;;;;;5.82;4.93;;;27.70;1.00;;;;;;5112112;28;20167;-57
2022/08/17 00:51:00;;;;;;;5.70;5.30;;;27.60;1.00;;;;;;5111031;28;20056;-55
2022/08/17 00:53:29;;;;;;;6.28;5.68;;;27.60;1.00;;;;;;5115789;28;20107;-56
2022/08/17 00:55:56;;;;;;;6.47;5.78;;;27.60;1.00;;;;;;5115073;28;20020;-56
2022/08/17 00:58:22;;;;;;;6.63;6.00;;;27.60;1.00;;;;;;5115812;28;20027;-56
2022/08/17 01:00:49;;;;;;;6.20;5.70;;;27.50;1.00;;;;;;5114882;28;20354;-55
2022/08/17 01:03:25;;;;;;;6.88;6.28;;;27.50;1.00;;;;;;5115598;28;20488;-57
2022/08/17 01:05:55;;;;;;;5.82;5.35;;;27.50;1.00;;;;;;5114980;28;20098;-57
2022/08/17 01:08:23;;;;;;;7.78;5.63;;;27.50;1.00;;;;;;5113859;28;20100;-57
2022/08/17 01:10:52;;;;;;;6.50;5.82;;;27.60;1.00;;;;;;5107706;28;20086;-56
2022/08/17 01:13:18;;;;;;;6.03;5.05;;;27.60;1.00;;;;;;5115603;28;20433;-58
2022/08/17 01:16:17;;;;;;;5.57;5.00;;;27.50;1.00;;;;;;5114706;28;20032;-58
2022/08/17 01:18:46;;;;;;;5.70;5.32;;;27.40;1.00;;;;;;5095276;28;20023;-54
2022/08/17 01:21:34;;;;;;;5.50;5.00;;;27.40;1.00;;;;;;5114340;28;20023;-55
2022/08/17 01:24:01;;;;;;;5.60;5.18;;;27.40;1.00;;;;;;5115291;28;20015;-55
2022/08/17 01:26:29;;;;;;;7.32;5.32;;;27.40;1.00;;;;;;5106333;28;20032;-53
2022/08/17 01:28:55;;;;;;;6.13;5.32;;;27.40;1.00;;;;;;5109431;28;20127;-57
2022/08/17 01:31:23;;;;;;;5.68;5.13;;;27.40;1.00;;;;;;5113264;28;20036;-54
2022/08/17 01:33:48;;;;;;;6.55;5.03;;;27.40;1.00;;;;;;5114449;28;20102;-54
2022/08/17 01:36:14;;;;;;;5.38;4.50;;;27.40;1.00;;;;;;5113590;28;20066;-56
2022/08/17 01:38:39;;;;;;;5.40;4.90;;;27.30;1.00;;;;;;5084430;28;20539;-55
2022/08/17 01:41:13;;;;;;;7.38;5.35;;;27.20;1.00;;;;;;5110621;28;20024;-56
2022/08/17 01:43:45;;;;;;;4.82;4.40;;;27.20;1.00;;;;;;5114213;28;20143;-55
2022/08/17 01:46:19;;;;;;;5.38;4.93;;;27.30;1.00;;;;;;5111002;28;20432;-56
2022/08/17 01:48:46;;;;;;;5.32;4.85;;;27.10;1.00;;;;;;5103754;28;20032;-56
2022/08/17 01:51:13;;;;;;;5.10;4.60;;;27.30;1.00;;;;;;5094477;28;20384;-57
2022/08/17 01:53:44;;;;;;;6.80;5.03;;;27.20;1.00;;;;;;5113376;28;20457;-55
2022/08/17 01:56:13;;;;;;;6.25;4.60;;;27.20;1.00;;;;;;5112789;28;20024;-53
2022/08/17 01:58:39;;;;;;;5.00;4.60;;;27.20;1.00;;;;;;5114717;28;20051;-55
2022/08/17 02:01:06;;;;;;;5.72;4.55;;;27.20;1.00;;;;;;5113526;28;20502;-55
2022/08/17 02:03:34;;;;;;;5.07;4.68;;;27.20;1.00;;;;;;5113774;28;20093;-54
2022/08/17 02:06:00;;;;;;;5.47;4.80;;;27.10;1.00;;;;;;5113491;28;20073;-56
2022/08/17 02:08:27;;;;;;;5.05;4.70;;;27.10;1.00;;;;;;5114388;28;20035;-55
2022/08/17 02:10:53;;;;;;;5.70;4.85;;;27.20;1.00;;;;;;5080125;28;20027;-53
2022/08/17 02:13:20;;;;;;;5.50;4.95;;;27.10;1.00;;;;;;5114358;28;20047;-55
2022/08/17 02:15:46;;;;;;;5.40;4.90;;;27.00;1.00;;;;;;5113414;28;20023;-54
2022/08/17 02:18:13;;;;;;;5.82;4.78;;;27.10;1.00;;;;;;5114384;28;20024;-55
2022/08/17 02:20:40;;;;;;;7.47;5.53;;;27.10;1.00;;;;;;5111620;28;20039;-55
2022/08/17 02:23:09;;;;;;;6.68;4.82;;;27.00;1.00;;;;;;5099988;28;20038;-55
2022/08/17 02:25:35;;;;;;;5.20;4.80;;;27.10;1.00;;;;;;5113342;28;20032;-54
2022/08/17 02:28:02;;;;;;;6.38;5.85;;;27.00;1.00;;;;;;5113081;28;20023;-54
2022/08/17 02:30:28;;;;;;;5.43;4.93;;;27.00;1.00;;;;;;5114162;28;20477;-53
2022/08/17 02:32:54;;;;;;;7.38;5.72;;;27.00;1.00;;;;;;5113175;28;20023;-54
2022/08/17 02:35:21;;;;;;;6.78;5.32;;;27.00;1.00;;;;;;5095572;28;20491;-55
2022/08/17 02:37:48;;;;;;;6.45;5.78;;;27.00;1.00;;;;;;5112858;28;20053;-55
2022/08/17 02:40:14;;;;;;;6.38;5.65;;;26.90;1.00;;;;;;5095436;28;20369;-54
2022/08/17 02:42:42;;;;;;;6.32;5.18;;;27.00;1.00;;;;;;5113024;28;20047;-55
2022/08/17 02:45:17;;;;;;;5.40;5.00;;;26.90;1.00;;;;;;5112896;28;20035;-55
2022/08/17 02:47:44;;;;;;;6.07;5.43;;;26.80;1.00;;;;;;5098391;28;20452;-55
2022/08/17 02:50:13;;;;;;;5.35;4.85;;;26.80;1.00;;;;;;5088033;28;20040;-55
2022/08/17 02:52:40;;;;;;;5.75;4.93;;;26.80;1.00;;;;;;5108213;28;20032;-52
2022/08/17 02:55:12;;;;;;;6.88;5.00;;;26.80;1.00;;;;;;5113496;28;20019;-53
2022/08/17 02:57:38;;;;;;;5.82;5.00;;;26.80;1.00;;;;;;5112609;28;20020;-55
2022/08/17 03:00:09;;;;;;;5.50;5.00;;;26.80;1.00;;;;;;5095189;28;20030;-55
2022/08/17 03:02:39;;;;;;;5.55;4.93;;;26.90;1.00;;;;;;5112381;28;20039;-54
2022/08/17 03:05:07;;;;;;;6.85;5.55;;;26.80;1.00;;;;;;5113175;28;20027;-54
2022/08/17 03:07:33;;;;;;;5.53;4.97;;;26.80;1.00;;;;;;5112482;28;20024;-55
2022/08/17 03:09:59;;;;;;;6.00;4.93;;;26.80;1.00;;;;;;5113235;28;20396;-53
2022/08/17 03:12:30;;;;;;;5.40;4.88;;;26.80;1.00;;;;;;5110439;28;20106;-55
2022/08/17 03:14:56;;;;;;;9.35;5.05;;;26.70;1.00;;;;;;5112228;28;20032;-56
2022/08/17 03:17:21;;;;;;;6.05;5.13;;;26.60;1.00;;;;;;5093855;28;20024;-54
2022/08/17 03:19:47;;;;;;;5.28;4.70;;;26.70;1.00;;;;;;5111465;28;20069;-56
2022/08/17 03:22:13;;;;;;;6.72;5.13;;;26.70;1.00;;;;;;5112167;28;20019;-54
2022/08/17 03:24:38;;;;;;;5.28;4.78;;;26.70;1.00;;;;;;5112955;28;20582;-56
2022/08/17 03:27:04;;;;;;;6.05;5.53;;;26.60;1.00;;;;;;5111779;28;20027;-57
2022/08/17 03:29:29;;;;;;;5.28;4.78;;;26.60;1.00;;;;;;5112829;28;20118;-52
2022/08/17 03:31:55;;;;;;;5.85;5.35;;;26.60;1.00;;;;;;5112359;28;20110;-55
2022/08/17 03:34:21;;;;;;;6.82;5.28;;;26.60;1.00;;;;;;5112683;28;20016;-55
2022/08/17 03:36:46;;;;;;;6.30;5.80;;;26.60;1.00;;;;;;5111343;28;20088;-54
2022/08/17 03:39:12;;;;;;;5.53;5.03;;;26.60;1.00;;;;;;5112670;28;20024;-57
2022/08/17 03:41:38;;;;;;;5.93;5.35;;;26.50;1.00;;;;;;5108060;28;20173;-52
2022/08/17 03:44:03;;;;;;;5.75;5.15;;;26.60;1.00;;;;;;5105182;28;20354;-54
2022/08/17 03:57:30;;;;;;;5.75;5.18;;;26.40;1.00;;;;;;5100359;28;20042;-56
2022/08/17 03:59:55;;;;;;;5.55;5.15;;;26.40;1.00;;;;;;5104964;28;20024;-56
2022/08/17 04:02:25;;;;;;;6.35;5.75;;;26.40;1.00;;;;;;5108295;28;20118;-55
2022/08/17 04:04:51;;;;;;;7.65;5.15;;;26.30;1.00;;;;;;5112642;28;20015;-56
2022/08/17 04:07:23;;;;;;;5.72;5.22;;;26.40;1.00;;;;;;5111664;28;20031;-57
2022/08/17 04:09:49;;;;;;;6.35;5.65;;;26.30;1.00;;;;;;5112087;28;20423;-56
2022/08/17 04:12:17;;;;;;;6.57;5.93;;;26.20;1.00;;;;;;5111142;28;20089;-55
2022/08/17 04:14:42;;;;;;;5.50;5.10;;;26.30;1.00;;;;;;5111224;28;20022;-54
2022/08/17 04:17:08;;;;;;;5.97;5.03;;;26.30;1.00;;;;;;5108372;28;20027;-56
2022/08/17 04:19:34;;;;;;;6.00;5.13;;;26.30;1.00;;;;;;5112057;28;20019;-54
2022/08/17 04:22:00;;;;;;;6.15;5.55;;;26.30;1.00;;;;;;5111296;28;20040;-55
2022/08/17 04:24:26;;;;;;;7.22;5.40;;;26.30;1.00;;;;;;5112013;28;20118;-56
2022/08/17 04:26:51;;;;;;;5.07;4.68;;;26.10;1.00;;;;;;5115447;28;20114;-57
2022/08/17 04:29:17;;;;;;;5.78;5.35;;;26.20;1.00;;;;;;5116250;28;20579;-54
2022/08/17 04:31:43;;;;;;;5.93;5.43;;;26.20;1.00;;;;;;5115432;28;20451;-56
2022/08/17 04:34:10;;;;;;;6.32;5.38;;;26.20;1.00;;;;;;5116234;28;20077;-56
2022/08/17 04:36:36;;;;;;;5.75;5.20;;;26.20;1.00;;;;;;5113608;28;20024;-52
2022/08/17 04:39:03;;;;;;;6.03;4.97;;;26.20;1.00;;;;;;5112655;28;20423;-57
2022/08/17 04:44:13;;;;;;;5.72;5.30;;;26.20;1.00;;;;;;5116323;28;20109;-56
2022/08/17 04:46:38;;;;;;;6.78;5.05;;;26.20;1.00;;;;;;5115064;28;22463;-54
2022/08/17 04:49:06;;;;;;;6.05;5.47;;;26.20;1.00;;;;;;5116163;28;20039;-56
2022/08/17 04:51:40;;;;;;;5.93;5.30;;;26.20;1.00;;;;;;5100986;28;20020;-56
2022/08/17 04:54:07;;;;;;;;;;;26.10;1.00;;;;;;5114602;28;20035;-57
2022/08/17 04:56:34;;;;;;;7.22;5.97;;;26.20;1.00;;;;;;5115100;28;19994;-56
2022/08/17 04:59:03;;;;;;;8.13;6.65;;;26.10;1.00;;;;;;5116036;28;20357;-57
2022/08/17 05:01:33;;;;;;;6.07;5.47;;;26.20;1.00;;;;;;5114782;28;20023;-56
2022/08/17 05:04:02;;;;;;;7.32;6.63;;;26.30;1.00;;;;;;5115695;28;20028;-56
2022/08/17 05:06:28;;;;;;;7.53;6.93;;;26.30;1.00;;;;;;5114561;28;20028;-56
2022/08/17 05:08:55;;;;;;;7.80;6.72;;;26.30;1.00;;;;;;5115552;28;20046;-56
2022/08/17 05:11:22;;;;;;;8.35;7.47;;;26.30;1.00;;;;;;5115528;28;20099;-56
2022/08/17 05:13:51;;;;;;;8.30;6.82;;;26.40;1.00;;;;;;5114617;28;20122;-56
2022/08/17 05:16:17;;;;;;;7.65;6.80;;;26.40;1.00;;;;;;5115367;28;20097;-54
2022/08/17 05:18:43;;;;;;;10.77;7.55;;;26.40;1.00;;;;;;5113943;28;20483;-56
2022/08/17 05:21:08;;;;;;;8.07;6.82;;;26.40;1.00;;;;;;5113244;28;20032;-55
2022/08/17 05:23:35;;;;;;;7.70;7.00;;;26.50;1.00;;;;;;5113162;28;20051;-56
2022/08/17 05:26:01;;;;;;;7.80;6.50;;;26.50;1.00;;;;;;5115265;28;20056;-57
2022/08/17 05:28:27;;;;;;;10.23;7.18;;;26.50;1.00;;;;;;5113515;28;20031;-54
2022/08/17 05:30:54;;;;;;;9.15;7.57;;;26.50;1.00;;;;;;5115098;28;20383;-52
2022/08/17 05:33:27;;;;;;;9.13;7.57;;;26.60;1.00;;;;;;5114207;28;20598;-53
2022/08/17 05:35:55;;;;;;;10.25;7.78;;;26.60;1.00;;;;;;5115035;28;20479;-55
2022/08/17 05:38:22;;;;;;;12.45;8.02;;;26.70;1.00;;;;;;5113247;28;20030;-56
2022/08/17 05:40:48;;;;;;;9.40;8.40;;;26.70;1.00;;;;;;5114928;28;20024;-55
2022/08/17 05:43:21;;;;;;;11.57;8.40;;;26.70;1.00;;;;;;5114197;28;20070;-54
2022/08/17 05:46:05;;;;;;;9.48;8.05;;;26.70;1.00;;;;;;5105760;28;20035;-54
2022/08/17 05:48:37;;;;;;;10.73;9.07;;;26.70;1.00;;;;;;5114328;28;20074;-56
2022/08/17 05:51:30;;;;;;;11.15;8.35;;;26.80;1.00;;;;;;5114697;28;20461;-53
2022/08/17 05:53:58;;;;;;;13.88;8.70;;;26.80;1.00;;;;;;5106069;28;20039;-55
2022/08/17 05:56:42;;;;;;;12.88;9.70;;;26.80;1.00;;;;;;5114342;28;20037;-55
2022/08/17 05:59:32;;;;;;;12.07;9.95;;;26.90;1.00;;;;;;5106610;28;20024;-51
2022/08/17 06:02:10;;;;;;;13.52;9.13;;;26.80;1.00;;;;;;5086362;28;20024;-55
2022/08/17 06:04:51;;;;;;;11.68;9.85;;;26.80;1.00;;;;;;5094552;28;20354;-53
2022/08/17 06:07:41;;;;;;;11.13;9.13;;;26.90;1.00;;;;;;5105960;28;20039;-56
2022/08/17 06:10:45;;;;;;;11.95;9.75;;;26.90;1.00;;;;;;5087535;28;20047;-53
2022/08/17 06:13:37;;;;;;;12.20;9.40;;;26.90;1.00;;;;;;5096822;28;20542;-54
2022/08/17 06:16:09;;;;;;;10.48;9.32;;;26.90;1.00;;;;;;5114401;28;20027;-53
2022/08/17 06:18:44;;;;;;;13.70;9.95;;;26.90;1.00;;;;;;5113719;28;20031;-53
2022/08/17 06:21:14;;;;;;;11.77;10.05;;;26.80;1.00;;;;;;5113850;28;20023;-54
2022/08/17 06:23:46;;;;;;;16.10;10.50;;;26.90;1.00;;;;;;5113063;28;20027;-55
2022/08/17 06:26:19;;;;;;;16.17;10.57;;;26.80;1.00;;;;;;5114313;28;20122;-54
2022/08/17 06:28:53;;;;;;;12.10;10.35;;;26.90;1.00;;;;;;5113419;28;20036;-54
2022/08/17 06:31:26;;;;;;;13.70;11.07;;;27.00;1.00;;;;;;5114024;28;20030;-56
2022/08/17 06:33:52;;;;;;;11.15;10.02;;;26.90;1.00;;;;;;5112507;28;20107;-55
2022/08/17 06:36:23;;;;;;;11.15;10.05;;;27.00;1.00;;;;;;5113972;28;20050;-54
2022/08/17 06:39:03;;;;;;;17.42;11.10;;;27.00;1.00;;;;;;5112117;28;20023;-55
2022/08/17 06:41:35;;;;;;;12.57;11.27;;;27.00;1.00;;;;;;5113879;28;20095;-55
2022/08/17 06:44:35;;;;;;;12.68;10.25;;;26.90;1.00;;;;;;5113509;28;20451;-55
2022/08/17 06:47:12;;;;;;;15.32;10.57;;;26.90;1.00;;;;;;5055325;28;20044;-55
2022/08/17 06:49:39;;;;;;;13.27;10.38;;;26.80;1.00;;;;;;5113479;28;20042;-55
2022/08/17 06:52:19;;;;;;;15.77;11.30;;;26.70;1.00;;;;;;5112978;28;20043;-56
2022/08/17 06:54:47;;;;;;;12.23;10.13;;;26.90;1.00;;;;;;5113830;28;20102;-55
2022/08/17 06:57:24;;;;;;;12.25;10.65;;;26.80;1.00;;;;;;5109290;28;20478;-55
2022/08/17 06:59:53;;;;;;;13.60;10.02;;;26.80;1.00;;;;;;5098175;28;20054;-54
2022/08/17 07:02:35;;;;;;;14.07;10.02;;;27.00;1.00;;;;;;5109793;28;20028;-55
2022/08/17 07:05:01;;;;;;;10.75;9.65;;;26.90;1.00;;;;;;5100909;28;20046;-54
2022/08/17 07:10:13;;;;;;;11.23;10.07;;;27.00;1.00;;;;;;5104516;28;20054;-56
2022/08/17 07:12:41;;;;;;;13.90;11.38;;;26.90;1.00;;;;;;5094375;28;20073;-57
2022/08/17 07:15:13;;;;;;;12.88;11.23;;;26.90;1.00;;;;;;5092618;28;20476;-56
2022/08/17 07:17:40;;;;;;;14.23;11.35;;;26.80;1.00;;;;;;5098966;28;20034;-54
2022/08/17 07:20:10;;;;;;;12.18;10.85;;;26.90;1.00;;;;;;5080632;28;20019;-55
2022/08/17 07:22:50;;;;;;;13.23;10.98;;;27.00;1.00;;;;;;5105754;28;20402;-56
2022/08/17 07:25:18;;;;;;;12.35;9.60;;;27.00;1.00;;;;;;5105285;28;20023;-55
2022/08/17 07:27:49;;;;;;;14.18;10.80;;;27.10;1.00;;;;;;5076422;28;20024;-55
2022/08/17 07:30:38;;;;;;;10.57;9.48;;;27.10;1.00;;;;;;5105000;28;20028;-55
2022/08/17 07:33:10;;;;;;;17.05;10.02;;;27.20;1.00;;;;;;5103643;28;20523;-56
2022/08/17 07:35:41;;;;;;;10.55;9.50;;;27.40;1.00;;;;;;5112783;28;20028;-55
2022/08/17 07:38:29;;;;;;;13.75;10.40;;;27.40;1.00;;;;;;5110902;28;20493;-54
2022/08/17 07:41:01;;;;;;;12.50;9.18;;;27.20;1.00;;;;;;5101592;28;20028;-56
2022/08/17 07:43:56;;;;;;;11.80;9.32;;;27.30;1.00;;;;;;5111350;28;20051;-56
2022/08/17 07:49:39;;;;;;;12.60;9.70;;;27.40;1.00;;;;;;5111786;28;20105;-54
2022/08/17 07:52:26;;;;;;;11.52;9.15;;;27.20;1.00;;;;;;5111818;28;20035;-55
2022/08/17 07:54:51;;;;;;;15.18;9.43;;;27.40;1.00;;;;;;5112371;28;20540;-55
2022/08/17 07:57:22;;;;;;;12.48;9.90;;;27.40;1.00;;;;;;5111713;28;20102;-55
2022/08/17 08:00:00;;;;;;;12.70;9.85;;;27.60;1.00;;;;;;5108767;28;20095;-55
2022/08/17 08:02:58;;;;;;;15.60;10.45;;;27.70;1.00;;;;;;5111328;28;20497;-55
2022/08/17 08:05:27;;;;;;;11.77;10.30;;;27.60;1.00;;;;;;5112397;28;20019;-55
2022/08/17 08:08:00;;;;;;;10.75;8.77;;;27.50;1.00;;;;;;5111521;28;20113;-56
2022/08/17 08:10:29;;;;;;;12.23;8.63;;;27.70;1.00;;;;;;5098280;28;20028;-56
2022/08/17 08:13:10;;;;;;;11.43;9.32;;;27.70;1.00;;;;;;5111659;28;20385;-55
2022/08/17 08:15:41;;;;;;;11.50;8.77;;;27.80;1.00;;;;;;5098796;28;20020;-55
2022/08/17 08:18:22;;;;;;;12.05;10.80;;;27.90;1.00;;;;;;5112032;28;20055;-56
2022/08/17 08:21:04;;;;;;;14.95;11.55;;;27.80;1.00;;;;;;5098687;28;20065;-54
2022/08/17 08:24:08;;;;;;;13.27;10.13;;;27.80;1.00;;;;;;5107794;28;20024;-56
2022/08/17 08:27:06;;;;;;;12.30;10.55;;;27.80;1.00;;;;;;5103316;28;20085;-53
2022/08/17 08:29:46;;;;;;;15.98;12.30;;;27.90;1.00;;;;;;5100455;28;20039;-56
2022/08/17 08:32:27;;;;;;;12.68;11.32;;;27.90;1.00;;;;;;5111372;28;20077;-57
2022/08/17 08:35:21;;;;;;;14.50;11.68;;;28.00;1.00;;;;;;5112127;28;20473;-53
2022/08/17 08:37:52;;;;;;;14.70;11.77;;;27.90;1.00;;;;;;5089291;28;20499;-56
2022/08/17 08:40:43;;;;;;;19.02;11.40;;;27.90;1.00;;;;;;5112194;28;20412;-57
2022/08/17 08:43:27;;;;;;;14.27;11.18;;;28.00;1.00;;;;;;5111000;28;20059;-55
2022/08/17 08:46:16;;;;;;;20.63;12.85;;;28.10;1.00;;;;;;5111032;28;20028;-56
2022/08/17 08:49:03;;;;;;;17.75;11.13;;;28.10;1.00;;;;;;5104251;28;20032;-56
2022/08/17 08:51:36;;;;;;;12.77;11.13;;;28.20;1.00;;;;;;5109489;28;20059;-55
2022/08/17 08:54:37;;;;;;;15.25;11.75;;;28.20;1.00;;;;;;5111770;28;20107;-55
2022/08/17 08:57:09;;;;;;;15.48;11.05;;;28.20;1.00;;;;;;5110132;28;20131;-56
2022/08/17 08:59:42;;;;;;;16.23;12.30;;;28.30;1.00;;;;;;5111820;28;20491;-57
2022/08/17 09:02:53;;;;;;;15.38;10.65;;;28.30;1.00;;;;;;5111126;28;20024;-55
2022/08/17 09:05:36;;;;;;;16.92;11.82;;;28.40;1.00;;;;;;5084504;28;20153;-55
2022/08/17 09:08:18;;;;;;;15.25;11.48;;;28.50;1.00;;;;;;5111049;28;20108;-57
2022/08/17 09:10:55;;;;;;;14.68;12.85;;;28.60;1.00;;;;;;5111965;28;20047;-54
2022/08/17 09:13:37;;;;;;;15.52;10.85;;;28.40;1.00;;;;;;5114812;28;20078;-56
2022/08/17 09:16:14;;;;;;;15.05;12.25;;;28.60;1.00;;;;;;5114959;28;20028;-57
2022/08/17 09:18:43;;;;;;;17.67;13.40;;;28.70;1.00;;;;;;5114876;28;20046;-53
2022/08/17 09:21:31;;;;;;;16.42;13.25;;;28.60;1.00;;;;;;5115346;28;20073;-56
2022/08/17 09:24:18;;;;;;;15.77;11.82;;;28.70;1.00;;;;;;5113760;28;20117;-57
2022/08/17 09:27:05;;;;;;;13.70;11.68;;;28.70;1.00;;;;;;5114542;28;20027;-55
2022/08/17 09:29:35;;;;;;;14.98;11.85;;;28.80;1.00;;;;;;5103287;28;20059;-54
2022/08/17 09:32:06;;;;;;;15.90;13.70;;;28.90;1.00;;;;;;5114519;28;20350;-56
2022/08/17 09:34:49;;;;;;;14.75;11.90;;;28.90;1.00;;;;;;5115274;28;20503;-57
2022/08/17 09:37:40;;;;;;;15.10;11.07;;;29.00;1.00;;;;;;5114167;28;20106;-55
2022/08/17 09:40:27;;;;;;;16.25;12.02;;;28.90;1.00;;;;;;5115171;28;20059;-54
2022/08/17 09:43:12;;;;;;;13.85;10.93;;;29.00;1.00;;;;;;5112454;28;20012;-52
2022/08/17 09:45:49;;;;;;;14.18;11.07;;;29.10;1.00;;;;;;5114738;28;20116;-54
2022/08/17 09:48:20;;;;;;;14.50;11.98;;;29.10;1.00;;;;;;5103195;28;20044;-57
2022/08/17 09:51:23;;;;;;;12.50;9.90;;;29.00;1.00;;;;;;5114859;28;20485;-56
2022/08/17 09:53:49;;;;;;;14.10;10.48;;;29.20;1.00;;;;;;5114817;28;20031;-56
2022/08/17 09:56:31;;;;;;;12.93;9.70;;;29.10;1.00;;;;;;5112198;28;20019;-55
2022/08/17 09:59:16;;;;;;;13.57;9.95;;;29.20;1.00;;;;;;5115026;28;20023;-56
2022/08/17 10:01:52;;;;;;;12.35;9.85;;;29.20;1.00;;;;;;5113573;28;20107;-51
2022/08/17 10:04:42;;;;;;;12.63;9.55;;;29.10;1.00;;;;;;5114680;28;20023;-56
2022/08/17 10:07:21;;;;;;;14.05;10.15;;;29.10;1.00;;;;;;5113505;28;20023;-53
2022/08/17 10:10:13;;;;;;;9.70;8.68;;;29.20;1.00;;;;;;5114711;28;20085;-56
2022/08/17 10:13:01;;;;;;;13.82;8.35;;;29.20;1.00;;;;;;5113180;28;20019;-56
2022/08/17 10:15:59;;;;;;;9.23;8.07;;;29.20;1.00;;;;;;5113754;28;20031;-56
2022/08/17 10:18:50;;;;;;;11.13;8.48;;;29.20;1.00;;;;;;5104336;28;20032;-55
2022/08/17 10:27:38;;;;;;;8.63;7.72;;;29.30;1.00;;;;;;5106934;28;20478;-55
2022/08/17 10:30:06;;;;;;;9.85;8.20;;;29.40;1.00;;;;;;5108887;28;20047;-57
2022/08/17 10:32:39;;;;;;;9.68;8.80;;;29.40;1.00;;;;;;5101343;28;20484;-56
2022/08/17 10:35:17;;;;;;;12.48;8.35;;;29.50;1.00;;;;;;5110038;28;20019;-57
2022/08/17 10:38:05;;;;;;;12.73;8.73;;;29.60;1.00;;;;;;5112218;28;20030;-54
2022/08/17 10:40:44;;;;;;;12.50;8.00;;;29.70;1.00;;;;;;5112518;28;20024;-54
2022/08/17 10:43:46;;;;;;;9.40;7.28;;;29.80;1.00;;;;;;5113911;28;20027;-55
2022/08/17 10:46:42;;;;;;;11.68;7.90;;;29.70;1.00;;;;;;5082179;28;20035;-56
2022/08/17 10:49:16;;;;;;;11.75;7.93;;;29.50;1.00;;;;;;5113682;28;20024;-56
2022/08/17 10:51:47;;;;;;;9.73;8.00;;;29.60;1.00;;;;;;5112773;28;20032;-56
2022/08/17 10:54:37;;;;;;;9.63;8.52;;;29.80;1.00;;;;;;5113456;28;20016;-57
2022/08/17 10:57:28;;;;;;;9.85;7.22;;;29.90;1.00;;;;;;5111879;28;20031;-56
2022/08/17 10:59:58;;;;;;;11.20;7.45;;;30.00;1.00;;;;;;5113505;28;20015;-56
2022/08/17 11:02:54;;;;;;;11.35;6.60;;;30.10;1.00;;;;;;5112983;28;20358;-56
2022/08/17 11:05:27;;;;;;;12.00;7.45;;;30.40;1.00;;;;;;5104292;28;20416;-55
2022/08/17 11:07:57;;;;;;;7.22;6.53;;;30.60;1.00;;;;;;5110479;28;20026;-56
2022/08/17 11:10:43;;;;;;;9.77;7.32;;;30.90;1.00;;;;;;5112817;28;20035;-56
2022/08/17 11:13:29;;;;;;;9.38;7.13;;;30.80;1.00;;;;;;5089689;28;20115;-54
2022/08/17 11:16:02;;;;;;;11.23;7.53;;;30.90;1.00;;;;;;5103151;28;20370;-55
2022/08/17 11:18:47;;;;;;;8.82;7.20;;;31.00;1.00;;;;;;5112462;28;20020;-56
2022/08/17 11:21:38;;;;;;;9.02;6.95;;;31.00;1.00;;;;;;5099086;28;20396;-57
2022/08/17 11:24:17;;;;;;;8.38;6.63;;;31.30;1.00;;;;;;5111723;28;20023;-55
2022/08/17 11:27:00;;;;;;;9.43;6.88;;;31.40;1.00;;;;;;5102288;28;20035;-56
2022/08/17 11:29:36;;;;;;;11.73;7.47;;;31.40;1.00;;;;;;5111325;28;20028;-55
2022/08/17 11:32:25;;;;;;;8.10;6.47;;;31.40;1.00;;;;;;5111577;28;20097;-57
2022/08/17 11:35:10;;;;;;;8.63;7.50;;;31.60;1.00;;;;;;5112016;28;20063;-54
2022/08/17 11:38:01;;;;;;;12.38;7.57;;;31.60;1.00;;;;;;5112081;28;20450;-57
2022/08/17 11:40:51;;;;;;;10.25;6.65;;;31.60;1.00;;;;;;5112853;28;20035;-56
2022/08/17 11:43:48;;;;;;;10.77;7.10;;;31.50;1.00;;;;;;5105949;28;20086;-56
2022/08/17 11:51:32;;;;;;;11.57;7.10;;;31.60;1.00;;;;;;5101286;28;20118;-56
2022/08/17 11:52:35;;;;;;;9.43;7.05;;;31.70;1.00;;;;;;5101158;28;20104;-55
2022/08/17 11:55:01;;;;;;;10.60;7.55;;;31.70;1.00;;;;;;5112844;28;20046;-54
2022/08/17 11:57:28;;;;;;;12.02;8.00;;;31.70;1.00;;;;;;5110999;28;20041;-53
2022/08/17 12:00:10;;;;;;;9.68;7.25;;;31.70;1.00;;;;;;5111981;28;20106;-55
2022/08/17 12:02:42;;;;;;;10.65;8.60;;;31.60;1.00;;;;;;5111790;28;20020;-55
2022/08/17 12:05:13;;;;;;;13.40;9.20;;;31.60;1.00;;;;;;5112316;28;20024;-56
2022/08/17 12:07:52;;;;;;;12.30;8.27;;;31.40;1.00;;;;;;5111443;28;20478;-57
2022/08/17 12:10:28;;;;;;;9.25;7.72;;;31.40;1.00;;;;;;5112358;28;20444;-53
2022/08/17 12:12:55;;;;;;;16.85;8.52;;;31.40;1.00;;;;;;5108243;28;20481;-57
2022/08/17 12:15:30;;;;;;;9.98;8.75;;;31.40;1.00;;;;;;5110862;28;20031;-57
2022/08/17 12:17:57;;;;;;;7.95;7.18;;;31.50;1.00;;;;;;5111062;28;20076;-55
2022/08/17 12:20:32;;;;;;;11.30;7.25;;;31.60;1.00;;;;;;5082269;28;20078;-55
2022/08/17 12:23:32;;;;;;;11.73;7.25;;;31.70;1.00;;;;;;5110187;28;20535;-56
2022/08/17 12:26:01;;;;;;;11.18;7.72;;;31.90;1.00;;;;;;5079473;28;20358;-55
2022/08/17 12:28:30;;;;;;;9.15;7.47;;;31.80;1.00;;;;;;5111069;28;20473;-57
2022/08/17 12:31:10;;;;;;;9.85;6.78;;;31.60;1.00;;;;;;5111897;28;20031;-56
2022/08/17 12:33:42;;;;;;;11.85;7.93;;;31.60;1.00;;;;;;5111232;28;20110;-56
2022/08/17 12:36:13;;;;;;;13.63;7.78;;;31.70;1.00;;;;;;5112456;28;20373;-56
2022/08/17 12:38:40;;;;;;;10.57;8.07;;;31.70;1.00;;;;;;5111380;28;20008;-56
2022/08/17 12:41:27;;;;;;;10.40;7.65;;;31.90;1.00;;;;;;5112041;28;20031;-57
2022/08/17 12:44:04;;;;;;;9.80;7.72;;;31.70;1.00;;;;;;5097653;28;20092;-57
2022/08/17 12:47:08;;;;;;;10.80;7.32;;;31.60;1.00;;;;;;5112646;28;20078;-56
2022/08/17 12:49:41;;;;;;;7.93;6.90;;;31.50;1.00;;;;;;5115017;28;20036;-56
2022/08/17 12:52:18;;;;;;;11.02;7.97;;;31.40;1.00;;;;;;5108522;28;20389;-56
2022/08/17 12:55:05;;;;;;;10.48;8.10;;;31.40;1.00;;;;;;5116095;28;20019;-57
2022/08/17 12:57:44;;;;;;;11.43;8.57;;;31.20;1.00;;;;;;5112895;28;20066;-54
2022/08/17 13:00:11;;;;;;;13.40;7.90;;;31.20;1.00;;;;;;5115410;28;20030;-56
2022/08/17 13:02:40;;;;;;;14.13;8.00;;;31.10;1.00;;;;;;5113973;28;20047;-55
2022/08/17 13:05:13;;;;;;;10.68;8.63;;;31.10;1.00;;;;;;5115595;28;20106;-54
2022/08/17 13:07:45;;;;;;;13.50;9.25;;;31.10;1.00;;;;;;5112397;28;20642;-55
2022/08/17 13:10:27;;;;;;;11.75;9.00;;;30.90;1.00;;;;;;5115596;28;20361;-54
2022/08/17 13:12:53;;;;;;;9.65;8.45;;;31.10;1.00;;;;;;5113442;28;20038;-55
2022/08/17 13:15:22;;;;;;;11.85;9.63;;;31.30;1.00;;;;;;5115378;28;20456;-55
2022/08/17 13:18:25;;;;;;;10.65;9.18;;;31.70;1.00;;;;;;5092069;28;20392;-55
2022/08/17 13:20:52;;;;;;;15.00;9.80;;;31.40;1.00;;;;;;5075965;28;20016;-54
2022/08/17 13:23:19;;;;;;;14.75;10.10;;;31.40;1.00;;;;;;5113584;28;20036;-56
2022/08/17 13:25:53;;;;;;;13.45;10.60;;;31.20;1.00;;;;;;5115166;28;20020;-55
2022/08/17 13:28:21;;;;;;;12.18;9.55;;;31.10;1.00;;;;;;5114581;28;20031;-55
2022/08/17 13:30:46;;;;;;;13.55;10.82;;;31.20;1.00;;;;;;5115159;28;20028;-54
2022/08/17 13:33:29;;;;;;;14.00;10.93;;;31.10;1.00;;;;;;5114742;28;20027;-56
2022/08/17 13:36:06;;;;;;;15.73;10.52;;;30.90;1.00;;;;;;5115090;28;20532;-57
2022/08/17 13:38:38;;;;;;;13.82;10.70;;;30.90;1.00;;;;;;5114388;28;20016;-56
2022/08/17 13:41:06;;;;;;;14.73;10.98;;;30.80;1.00;;;;;;5114471;28;20543;-53
2022/08/17 13:43:43;;;;;;;15.50;10.88;;;30.70;1.00;;;;;;5098633;28;20036;-54
2022/08/17 13:46:21;;;;;;;14.43;11.05;;;30.80;1.00;;;;;;5115110;28;20031;-55
2022/08/17 13:49:05;;;;;;;16.25;11.43;;;30.60;1.00;;;;;;5114093;28;20104;-56
2022/08/17 13:51:41;;;;;;;12.75;11.50;;;30.60;1.00;;;;;;5109081;28;20114;-56
2022/08/17 13:54:25;;;;;;;15.90;11.38;;;30.50;1.00;;;;;;5106083;28;20058;-56
2022/08/17 13:57:15;;;;;;;;;;;30.50;1.00;;;;;;5101636;28;20028;-56